Terminal Aerodrome Forecast
Issued by NWS

Home | Current Version | Previous Version | Text Only | Print | Product List | Glossary On
Versions: 1 2 3 4 5 6 7 8 9 10 11 12 13 14 15 16 17 18 19 20 21 22 23 24
620
FTUS46 KMFR 201134
TAFRBG
TAF
KRBG 201134Z 2012/2112 00000KT P6SM FEW010 OVC060
     FM201700 15005KT 6SM -SHRASN SCT010 BKN030
     FM202200 VRB03KT P6SM -RA BKN030 OVC050=

USA.gov is the U.S. government's official web portal to all federal, state and local government web resources and services.